Time;durP1;ratioP1;P1;durP2;ratioP2;P2;SDS_P1;SDS_P2;PMS_P1;PMS_P2;Temp;Humidity;BMP_temperature;BMP_pressure;BME280_temperature;BME280_humidity;BME280_pressure;Samples;Min_cycle;Max_cycle;Signal;HPM_P1;HPM_P2
2023/08/14 00:04:54;;;;;;;5.85;3.78;;;18.00;1.00;;;;;;9938619;29;20259;-81
2023/08/14 00:10:16;;;;;;;7.65;3.58;;;18.00;98.30;;;;;;9950245;29;20545;-82
2023/08/14 00:15:38;;;;;;;8.45;4.32;;;18.00;1.00;;;;;;9928826;29;20519;-82
2023/08/14 00:20:59;;;;;;;5.97;4.15;;;18.00;1.00;;;;;;9958463;29;20260;-81
2023/08/14 00:26:20;;;;;;;6.18;3.63;;;18.00;99.90;;;;;;9949984;29;20200;-81
2023/08/14 00:31:41;;;;;;;9.90;3.80;;;18.00;1.00;;;;;;9951299;29;20200;-82
2023/08/14 00:37:03;;;;;;;6.88;3.60;;;18.00;1.00;;;;;;9937443;29;20224;-82
2023/08/14 00:42:25;;;;;;;6.15;4.10;;;17.90;1.00;;;;;;9992162;29;20306;-82
2023/08/14 00:47:47;;;;;;;5.65;3.65;;;17.80;1.00;;;;;;9995892;29;20208;-82
2023/08/14 00:53:09;;;;;;;7.13;3.97;;;17.80;45.80;;;;;;9969122;29;20218;-81
2023/08/14 00:58:31;;;;;;;9.10;3.88;;;17.80;99.90;;;;;;9969179;29;20244;-81
2023/08/14 01:03:53;;;;;;;5.28;3.40;;;17.70;1.00;;;;;;9956754;29;20503;-81
2023/08/14 01:09:14;;;;;;;8.32;3.72;;;17.70;1.00;;;;;;9954793;29;20212;-81
2023/08/14 01:14:38;;;;;;;5.88;3.50;;;17.60;16.90;;;;;;9969033;29;20416;-81
2023/08/14 01:20:00;;;;;;;6.22;3.53;;;17.60;1.00;;;;;;9941202;29;20235;-81
2023/08/14 01:25:31;;;;;;;4.63;3.58;;;17.50;39.70;;;;;;9968427;29;20212;-81
2023/08/14 01:30:54;;;;;;;6.97;3.80;;;17.50;99.90;;;;;;9954977;29;20239;-81
2023/08/14 01:36:18;;;;;;;5.68;3.60;;;17.40;93.60;;;;;;9967857;29;20510;-81
2023/08/14 01:41:55;;;;;;;7.80;4.10;;;17.30;1.00;;;;;;9988001;29;20248;-81
2023/08/14 01:47:16;;;;;;;7.47;4.13;;;17.30;1.00;;;;;;10000117;29;20206;-81
2023/08/14 01:52:37;;;;;;;5.07;3.50;;;17.30;1.00;;;;;;9953874;29;20218;-81
2023/08/14 01:57:59;;;;;;;11.27;4.38;;;17.20;99.90;;;;;;9941661;29;20523;-81
2023/08/14 02:03:20;;;;;;;6.97;4.18;;;17.10;99.90;;;;;;9953539;29;20571;-81
2023/08/14 02:08:41;;;;;;;8.88;4.70;;;17.10;99.90;;;;;;9953516;29;20299;-81
2023/08/14 02:14:03;;;;;;;7.18;4.35;;;17.00;1.00;;;;;;9941895;29;20216;-81
2023/08/14 02:19:24;;;;;;;9.95;5.03;;;16.90;99.90;;;;;;9965777;29;20243;-81
2023/08/14 02:24:45;;;;;;;6.10;4.43;;;16.90;1.00;;;;;;9954035;29;20210;-81
2023/08/14 02:30:07;;;;;;;6.85;5.00;;;16.90;1.00;;;;;;9965543;29;20212;-81
2023/08/14 02:35:29;;;;;;;6.25;4.63;;;16.80;98.50;;;;;;9966088;29;20212;-81
2023/08/14 02:40:50;;;;;;;5.57;4.30;;;16.80;99.90;;;;;;9965385;29;20247;-81
2023/08/14 02:46:12;;;;;;;8.85;5.00;;;16.70;57.50;;;;;;9991134;29;20248;-81
2023/08/14 02:51:33;;;;;;;7.40;4.38;;;16.70;51.40;;;;;;9967033;29;20217;-81
2023/08/14 02:56:54;;;;;;;6.80;4.80;;;16.60;1.00;;;;;;9965773;29;20216;-81
2023/08/14 03:02:15;;;;;;;9.63;5.13;;;16.60;99.90;;;;;;9965145;29;20311;-81
2023/08/14 03:07:37;;;;;;;8.80;5.30;;;16.60;96.90;;;;;;9964383;29;20530;-81
2023/08/14 03:13:00;;;;;;;6.70;4.82;;;16.60;34.80;;;;;;9930464;29;20556;-81
2023/08/14 03:18:21;;;;;;;10.02;6.57;;;16.60;99.90;;;;;;9923332;29;20258;-81
2023/08/14 03:23:44;;;;;;;11.13;7.63;;;16.60;99.90;;;;;;9952639;29;20246;-81
2023/08/14 03:29:06;;;;;;;9.45;5.88;;;16.60;99.90;;;;;;9951688;29;20212;-81
2023/08/14 03:34:27;;;;;;;12.02;5.65;;;16.60;17.70;;;;;;9977883;29;20455;-81
2023/08/14 03:39:49;;;;;;;8.05;4.90;;;16.60;1.00;;;;;;9968389;29;20247;-81
2023/08/14 03:45:10;;;;;;;8.05;5.28;;;16.60;99.90;;;;;;10002203;29;20210;-81
2023/08/14 03:50:33;;;;;;;9.65;5.45;;;16.60;1.00;;;;;;9975267;29;20224;-81
2023/08/14 03:55:55;;;;;;;6.78;4.72;;;16.50;1.00;;;;;;9949460;29;20287;-81
2023/08/14 04:01:16;;;;;;;6.50;4.65;;;16.60;1.00;;;;;;9950153;29;20236;-81
2023/08/14 04:06:38;;;;;;;6.10;4.57;;;16.60;99.90;;;;;;9957299;29;20216;-82
2023/08/14 04:12:02;;;;;;;7.55;4.40;;;16.60;71.10;;;;;;9932003;29;20217;-81
2023/08/14 04:17:24;;;;;;;8.80;5.05;;;16.60;1.00;;;;;;9950391;29;20208;-80
2023/08/14 04:22:45;;;;;;;7.03;4.75;;;16.60;83.60;;;;;;9958439;29;20405;-81
2023/08/14 04:28:06;;;;;;;5.65;4.53;;;16.70;99.90;;;;;;9957347;29;20301;-82
2023/08/14 04:33:27;;;;;;;4.93;4.35;;;16.80;1.00;;;;;;9945331;29;20257;-81
2023/08/14 04:38:48;;;;;;;6.80;4.97;;;16.90;98.70;;;;;;9968684;29;20247;-81
2023/08/14 04:44:11;;;;;;;8.07;4.07;;;17.00;1.00;;;;;;9959900;29;20240;-81
2023/08/14 04:49:33;;;;;;;7.80;4.95;;;17.10;1.00;;;;;;9969511;29;20239;-82
2023/08/14 04:54:55;;;;;;;8.10;4.03;;;17.20;1.00;;;;;;9983037;29;20200;-82
2023/08/14 05:00:19;;;;;;;5.47;3.22;;;17.30;99.90;;;;;;9955898;29;20411;-82
2023/08/14 05:05:40;;;;;;;4.20;3.30;;;17.40;99.90;;;;;;9943485;29;20283;-82
2023/08/14 05:11:04;;;;;;;5.85;3.97;;;17.40;99.90;;;;;;9958007;29;20238;-82
2023/08/14 05:16:26;;;;;;;5.10;4.18;;;17.50;13.60;;;;;;9943980;29;20204;-82
2023/08/14 05:21:50;;;;;;;5.20;4.25;;;17.60;99.90;;;;;;9954553;29;20260;-82
2023/08/14 05:27:11;;;;;;;5.05;4.18;;;17.70;4.10;;;;;;9956169;29;20274;-81
2023/08/14 05:32:32;;;;;;;6.25;4.40;;;17.80;1.00;;;;;;9955079;29;20236;-81
2023/08/14 05:37:56;;;;;;;4.68;3.72;;;17.90;1.00;;;;;;9967861;29;20216;-84
2023/08/14 05:43:17;;;;;;;4.72;3.40;;;18.10;1.00;;;;;;9999673;29;20238;-81
2023/08/14 05:48:40;;;;;;;4.47;3.53;;;18.20;93.70;;;;;;9998407;29;20530;-85
2023/08/14 05:54:01;;;;;;;4.38;3.45;;;18.30;1.00;;;;;;9955956;29;20235;-84
2023/08/14 05:59:22;;;;;;;4.88;3.08;;;18.40;16.40;;;;;;9980173;29;20235;-85
2023/08/14 06:04:44;;;;;;;3.38;2.53;;;18.60;1.00;;;;;;9970750;29;20241;-85
2023/08/14 06:10:06;;;;;;;3.42;2.88;;;18.80;1.00;;;;;;9945220;29;20208;-85
2023/08/14 06:15:27;;;;;;;3.55;3.08;;;19.00;1.00;;;;;;9967841;29;20205;-86
2023/08/14 06:20:51;;;;;;;4.88;3.13;;;19.40;1.00;;;;;;9954347;29;20236;-86
2023/08/14 06:26:12;;;;;;;4.75;2.80;;;19.80;6.60;;;;;;9967650;29;20197;-84
2023/08/14 06:31:33;;;;;;;6.28;3.45;;;20.30;1.00;;;;;;9953407;29;20216;-83
2023/08/14 06:36:54;;;;;;;5.72;3.97;;;20.80;1.00;;;;;;9953938;29;20281;-82
2023/08/14 06:42:16;;;;;;;6.97;3.58;;;21.60;99.90;;;;;;9999447;29;20293;-85
2023/08/14 06:47:44;;;;;;;4.72;3.13;;;22.70;1.00;;;;;;9988981;29;20495;-85
2023/08/14 06:53:05;;;;;;;3.38;2.70;;;23.80;99.90;;;;;;9930287;29;20208;-85
2023/08/14 06:58:28;;;;;;;4.30;3.35;;;24.70;9.00;;;;;;9931161;29;20277;-85
2023/08/14 07:03:49;;;;;;;5.32;3.28;;;25.40;1.00;;;;;;9942050;29;20208;-85
2023/08/14 07:09:10;;;;;;;4.53;3.55;;;25.80;1.00;;;;;;9936451;29;20277;-86
2023/08/14 07:14:33;;;;;;;5.95;3.80;;;26.20;1.00;;;;;;9966929;29;20266;-85
2023/08/14 07:19:53;;;;;;;5.25;3.78;;;26.60;1.00;;;;;;9964445;29;20429;-85
2023/08/14 07:25:15;;;;;;;4.30;3.78;;;27.30;1.00;;;;;;9965279;29;20204;-84
2023/08/14 07:30:38;;;;;;;8.05;3.63;;;27.50;1.00;;;;;;9904020;29;20267;-84
2023/08/14 07:36:00;;;;;;;5.82;3.35;;;28.00;1.00;;;;;;9976485;29;20701;-93
2023/08/14 07:41:21;;;;;;;5.05;2.78;;;28.30;1.00;;;;;;9964929;29;20259;-86
2023/08/14 07:46:43;;;;;;;3.03;2.53;;;28.90;1.00;;;;;;9956890;29;20280;-88
2023/08/14 07:52:05;;;;;;;3.20;2.30;;;29.40;1.00;;;;;;9968188;29;20212;-81
2023/08/14 07:57:27;;;;;;;4.97;2.75;;;29.70;1.00;;;;;;10008116;29;20205;-83
2023/08/14 08:02:53;;;;;;;4.32;2.85;;;29.90;1.00;;;;;;9945796;29;20482;-94
2023/08/14 08:08:14;;;;;;;7.82;2.88;;;;;;;;;;9939267;29;20220;-86
2023/08/14 08:13:35;;;;;;;5.82;2.40;;;30.70;1.00;;;;;;9960937;29;20216;-83
2023/08/14 08:18:57;;;;;;;4.22;2.30;;;30.50;1.00;;;;;;9966899;29;20269;-82
2023/08/14 08:24:19;;;;;;;4.90;2.35;;;30.60;1.00;;;;;;9940488;29;20213;-87
2023/08/14 08:29:43;;;;;;;4.13;2.40;;;30.90;1.00;;;;;;9943617;29;20216;-84
2023/08/14 08:35:04;;;;;;;3.63;1.90;;;30.50;99.90;;;;;;9945490;29;20244;-85
2023/08/14 08:40:27;;;;;;;3.35;2.00;;;31.00;99.90;;;;;;9957929;29;20256;-84
2023/08/14 08:45:50;;;;;;;5.90;2.15;;;31.30;99.90;;;;;;9951819;29;20220;-85
2023/08/14 08:51:12;;;;;;;3.80;2.28;;;31.50;99.90;;;;;;9965862;29;20570;-84
2023/08/14 08:56:34;;;;;;;5.40;2.10;;;32.10;99.90;;;;;;9954172;29;20211;-85
2023/08/14 09:01:56;;;;;;;2.55;1.95;;;32.20;99.90;;;;;;9938549;29;20285;-93
2023/08/14 09:07:18;;;;;;;2.25;1.70;;;32.20;99.90;;;;;;9972781;29;20196;-89
2023/08/14 09:12:39;;;;;;;4.57;2.10;;;32.60;99.90;;;;;;9943508;29;20232;-89
2023/08/14 09:18:01;;;;;;;4.60;2.55;;;32.70;99.90;;;;;;9953892;29;20204;-93
2023/08/14 09:23:22;;;;;;;3.08;2.10;;;32.60;99.90;;;;;;9985336;29;20210;-88
2023/08/14 09:28:43;;;;;;;4.13;1.88;;;32.70;99.90;;;;;;9952637;29;20243;-86
2023/08/14 09:34:05;;;;;;;3.80;2.40;;;32.80;99.90;;;;;;9961090;29;20478;-91
2023/08/14 09:39:26;;;;;;;4.20;2.35;;;33.40;99.90;;;;;;9978112;29;20257;-89
2023/08/14 09:44:48;;;;;;;3.92;2.08;;;32.00;99.90;;;;;;9948461;29;20220;-88
2023/08/14 09:50:11;;;;;;;4.82;2.13;;;31.40;99.90;;;;;;9929567;29;20634;-92
2023/08/14 09:55:33;;;;;;;4.05;1.90;;;31.80;99.90;;;;;;9975520;29;20208;-90
2023/08/14 10:00:55;;;;;;;3.78;2.05;;;32.20;99.90;;;;;;9974985;29;20243;-87
2023/08/14 10:06:23;;;;;;;9.38;2.53;;;32.30;99.90;;;;;;9961875;29;20215;-87
2023/08/14 10:11:45;;;;;;;6.60;2.35;;;31.80;99.90;;;;;;9948689;29;20215;-94
2023/08/14 10:17:17;;;;;;;5.00;2.00;;;32.20;99.90;;;;;;9962950;29;20406;-87
2023/08/14 10:22:41;;;;;;;4.68;1.92;;;32.60;99.90;;;;;;9964128;29;20543;-94
2023/08/14 10:34:01;;;;;;;3.63;2.03;;;33.40;99.90;;;;;;9969045;29;20236;-87
2023/08/14 10:39:34;;;;;;;4.05;2.25;;;32.70;99.90;;;;;;9964373;29;20309;-84
2023/08/14 10:44:57;;;;;;;3.17;1.70;;;32.30;99.90;;;;;;9966297;29;20534;-87
2023/08/14 10:51:12;;;;;;;2.55;1.92;;;32.90;99.90;;;;;;9971592;29;20206;-92
2023/08/14 10:56:58;;;;;;;5.10;2.05;;;33.10;99.90;;;;;;9936223;29;20396;-85
2023/08/14 11:02:21;;;;;;;3.75;1.98;;;33.70;99.90;;;;;;9971568;29;20290;-89
2023/08/14 11:07:57;;;;;;;1.90;1.55;;;33.80;99.90;;;;;;9949075;29;20227;-89
2023/08/14 11:13:18;;;;;;;2.78;1.88;;;33.60;99.90;;;;;;9961702;29;20204;-88
2023/08/14 11:18:40;;;;;;;4.75;1.92;;;34.20;99.90;;;;;;9949406;29;20219;-88
2023/08/14 11:24:10;;;;;;;6.18;2.10;;;34.20;99.90;;;;;;9973397;29;20289;-88
2023/08/14 11:29:31;;;;;;;5.45;1.80;;;33.70;99.90;;;;;;9962724;29;20291;-87
2023/08/14 11:35:18;;;;;;;6.72;1.90;;;33.80;99.90;;;;;;9960413;29;20223;-90
2023/08/14 11:40:42;;;;;;;4.82;1.60;;;33.70;99.90;;;;;;9948487;29;20264;-89
2023/08/14 11:52:19;;;;;;;5.90;1.83;;;34.00;99.90;;;;;;9952908;29;20209;-94
2023/08/14 11:57:43;;;;;;;4.38;2.40;;;33.90;99.90;;;;;;9936373;29;20528;-95
2023/08/14 12:03:06;;;;;;;3.42;2.08;;;34.00;99.90;;;;;;9967480;29;20244;-87
2023/08/14 12:08:30;;;;;;;3.08;1.90;;;33.70;99.90;;;;;;9955175;29;20196;-85
2023/08/14 12:13:51;;;;;;;7.93;2.45;;;33.40;99.90;;;;;;9949353;29;20228;-90
2023/08/14 12:19:13;;;;;;;5.20;2.05;;;33.30;99.90;;;;;;9943049;29;20497;-85
2023/08/14 12:24:42;;;;;;;3.85;1.80;;;33.00;99.90;;;;;;9946142;29;20657;-88
2023/08/14 12:30:28;;;;;;;3.75;1.90;;;32.30;99.90;;;;;;9962547;29;20228;-85
2023/08/14 12:35:50;;;;;;;3.92;2.17;;;31.90;99.90;;;;;;9963406;29;20257;-90
2023/08/14 12:41:35;;;;;;;3.05;2.42;;;31.30;99.90;;;;;;9982851;29;20574;-88
2023/08/14 12:46:57;;;;;;;4.15;2.00;;;31.20;99.90;;;;;;9951711;29;20200;-84
2023/08/14 12:52:23;;;;;;;3.92;1.98;;;31.40;99.90;;;;;;9951897;29;20209;-86
2023/08/14 12:57:50;;;;;;;5.00;2.08;;;31.10;99.90;;;;;;9959137;29;20212;-84
2023/08/14 13:03:11;;;;;;;3.47;2.20;;;31.20;99.90;;;;;;9923180;29;20236;-83
2023/08/14 13:08:33;;;;;;;3.35;2.65;;;;;;;;;;9954869;29;20495;-93
2023/08/14 13:13:54;;;;;;;5.80;2.55;;;30.50;99.90;;;;;;9925583;29;20221;-85
2023/08/14 13:19:15;;;;;;;2.95;2.17;;;30.10;99.90;;;;;;9915490;29;20239;-89
2023/08/14 13:24:37;;;;;;;5.60;3.08;;;30.20;1.00;;;;;;9930279;29;20438;-86
2023/08/14 13:29:58;;;;;;;5.55;2.60;;;30.40;1.00;;;;;;9962081;29;20239;-81
2023/08/14 13:35:19;;;;;;;3.83;2.63;;;30.50;1.00;;;;;;9952680;29;20228;-87
2023/08/14 13:40:42;;;;;;;10.75;2.85;;;30.90;1.00;;;;;;9964852;29;20267;-85
2023/08/14 13:46:03;;;;;;;3.88;2.10;;;30.80;1.00;;;;;;9957672;29;20514;-82
2023/08/14 13:51:25;;;;;;;5.85;2.55;;;30.60;1.00;;;;;;10019887;29;20223;-82
2023/08/14 13:56:46;;;;;;;2.53;2.33;;;30.30;1.00;;;;;;9962825;29;20209;-91
2023/08/14 14:02:15;;;;;;;5.03;2.80;;;30.20;1.00;;;;;;9970088;29;20313;-81
2023/08/14 14:07:36;;;;;;;5.13;3.40;;;30.40;1.00;;;;;;9971277;29;20433;-80
2023/08/14 14:13:02;;;;;;;4.65;2.72;;;30.30;1.00;;;;;;9971984;29;20445;-80
2023/08/14 14:18:23;;;;;;;4.72;2.40;;;30.20;1.00;;;;;;9962673;29;20416;-78
2023/08/14 14:23:44;;;;;;;6.28;3.80;;;30.20;1.00;;;;;;9975674;29;20270;-83
2023/08/14 14:29:06;;;;;;;3.40;3.00;;;30.00;99.90;;;;;;9959868;29;20287;-80
2023/08/14 14:34:27;;;;;;;4.55;3.28;;;29.90;99.90;;;;;;9955698;29;20477;-80
2023/08/14 14:39:49;;;;;;;5.07;3.67;;;29.80;99.90;;;;;;9954855;29;20217;-80
2023/08/14 14:45:11;;;;;;;10.07;3.45;;;29.80;99.90;;;;;;9975781;29;20208;-80
2023/08/14 14:50:35;;;;;;;3.88;2.60;;;29.80;99.90;;;;;;9975398;29;20204;-78
2023/08/14 14:55:56;;;;;;;6.82;2.88;;;29.30;99.90;;;;;;9943208;29;20587;-79
2023/08/14 15:01:18;;;;;;;3.20;2.67;;;29.20;99.90;;;;;;9964568;29;20246;-79
2023/08/14 15:06:39;;;;;;;6.55;2.35;;;29.30;99.90;;;;;;9963245;29;20673;-80
2023/08/14 15:12:06;;;;;;;2.97;2.30;;;29.20;99.90;;;;;;9962231;29;20287;-80
2023/08/14 15:17:28;;;;;;;7.25;3.75;;;29.10;99.90;;;;;;9950251;29;20245;-81
2023/08/14 15:22:49;;;;;;;5.75;3.42;;;28.80;99.90;;;;;;9948527;29;20274;-81
2023/08/14 15:28:10;;;;;;;5.63;2.97;;;29.00;99.90;;;;;;9960127;29;20191;-82
2023/08/14 15:33:32;;;;;;;3.20;2.90;;;28.80;99.90;;;;;;9967953;29;20215;-82
2023/08/14 15:38:53;;;;;;;5.53;2.83;;;28.80;99.90;;;;;;9992688;29;20228;-82
2023/08/14 15:44:15;;;;;;;3.72;2.88;;;28.70;99.90;;;;;;9976951;29;20315;-83
2023/08/14 15:49:36;;;;;;;11.90;3.60;;;28.70;99.90;;;;;;9975544;29;20260;-82
2023/08/14 15:54:59;;;;;;;10.02;3.67;;;28.60;99.90;;;;;;9978893;29;20257;-82
2023/08/14 16:00:26;;;;;;;3.72;3.08;;;28.70;99.90;;;;;;9956790;29;20257;-82
2023/08/14 16:05:53;;;;;;;3.38;2.65;;;28.70;99.90;;;;;;9972654;29;20460;-82
2023/08/14 16:11:15;;;;;;;6.18;3.40;;;28.80;99.90;;;;;;9936615;29;20212;-83
2023/08/14 16:16:36;;;;;;;5.00;2.80;;;28.90;99.90;;;;;;9934184;29;20197;-83
2023/08/14 16:21:57;;;;;;;4.85;3.20;;;28.90;99.90;;;;;;9978958;29;20228;-83
2023/08/14 16:27:18;;;;;;;3.42;2.78;;;28.90;99.90;;;;;;9971118;29;20205;-81
2023/08/14 16:32:39;;;;;;;3.83;3.13;;;28.80;99.90;;;;;;9971130;29;20208;-83
2023/08/14 16:38:00;;;;;;;4.03;2.90;;;28.60;99.90;;;;;;9969744;29;20230;-83
2023/08/14 16:43:22;;;;;;;4.45;3.20;;;28.40;99.90;;;;;;9969772;29;20251;-82
2023/08/14 16:48:43;;;;;;;7.07;3.45;;;28.20;99.90;;;;;;9957340;29;20227;-82
2023/08/14 16:54:04;;;;;;;6.22;3.20;;;28.10;99.90;;;;;;9968308;29;20200;-84
2023/08/14 16:59:26;;;;;;;2.95;2.65;;;28.10;99.90;;;;;;9945074;29;20227;-81
2023/08/14 17:04:47;;;;;;;4.20;2.58;;;28.00;1.00;;;;;;10006806;29;20494;-82
2023/08/14 17:10:08;;;;;;;5.95;3.47;;;28.00;1.00;;;;;;9982568;29;20225;-82
2023/08/14 17:15:40;;;;;;;5.35;4.13;;;27.90;1.00;;;;;;9969594;29;20222;-83
2023/08/14 17:21:01;;;;;;;4.35;3.50;;;;;;;;;;9942732;29;20286;-83
2023/08/14 17:26:22;;;;;;;4.78;3.42;;;27.60;1.00;;;;;;9967886;29;20212;-83
2023/08/14 17:31:43;;;;;;;4.78;3.53;;;27.40;1.00;;;;;;9943310;29;20212;-83
2023/08/14 17:37:04;;;;;;;3.58;3.10;;;27.20;99.90;;;;;;9953943;29;20211;-81
2023/08/14 17:42:27;;;;;;;7.47;3.78;;;27.10;99.90;;;;;;9955234;29;20297;-81
2023/08/14 17:47:49;;;;;;;5.82;3.38;;;;;;;;;;9955149;29;20255;-80
2023/08/14 17:53:12;;;;;;;3.70;3.13;;;26.80;99.90;;;;;;9967631;29;20381;-82
2023/08/14 17:58:33;;;;;;;4.97;3.50;;;26.70;1.00;;;;;;9955170;29;20239;-81
2023/08/14 18:03:56;;;;;;;7.32;3.47;;;26.60;1.00;;;;;;9988577;29;20306;-81
2023/08/14 18:09:17;;;;;;;4.95;3.53;;;26.40;1.00;;;;;;9968676;29;20219;-82
2023/08/14 18:14:38;;;;;;;5.60;3.92;;;26.20;1.00;;;;;;9967345;29;20283;-82
2023/08/14 18:20:00;;;;;;;5.22;3.65;;;;;;;;;;9952987;29;20527;-81
2023/08/14 18:25:22;;;;;;;5.80;4.38;;;25.80;1.00;;;;;;9967227;29;20224;-81
2023/08/14 18:30:44;;;;;;;7.05;5.25;;;25.60;1.00;;;;;;9979230;29;20209;-82
2023/08/14 18:36:05;;;;;;;7.72;5.38;;;25.50;1.00;;;;;;9951279;29;20213;-82
2023/08/14 18:41:26;;;;;;;7.43;5.07;;;25.30;99.90;;;;;;9966039;29;20247;-82
2023/08/14 18:46:47;;;;;;;7.28;5.28;;;25.40;1.00;;;;;;9953055;29;20288;-83
2023/08/14 18:52:09;;;;;;;6.55;5.47;;;24.90;1.00;;;;;;9965210;29;20445;-82
2023/08/14 18:57:30;;;;;;;32.17;20.83;;;24.90;64.80;;;;;;9953410;29;20284;-82
2023/08/14 19:02:52;;;;;;;27.88;17.70;;;;;;;;;;9972052;29;20232;-81
2023/08/14 19:08:13;;;;;;;20.17;12.35;;;24.50;99.90;;;;;;9939623;29;20329;-80
2023/08/14 19:13:35;;;;;;;15.20;9.55;;;24.40;99.90;;;;;;9944036;29;20252;-81
2023/08/14 19:18:56;;;;;;;12.25;7.80;;;24.30;99.90;;;;;;9927508;29;20212;-82
2023/08/14 19:24:17;;;;;;;11.70;7.15;;;24.20;1.00;;;;;;9953792;29;20423;-84
2023/08/14 19:29:41;;;;;;;17.15;8.27;;;24.10;1.00;;;;;;9963107;29;20460;-82
2023/08/14 19:35:02;;;;;;;16.48;7.97;;;23.90;1.00;;;;;;9958429;29;20257;-82
2023/08/14 19:40:23;;;;;;;14.48;6.32;;;23.80;1.00;;;;;;9943357;29;20240;-82
2023/08/14 19:45:44;;;;;;;10.68;6.40;;;23.70;1.00;;;;;;9955721;29;20491;-82
2023/08/14 19:51:07;;;;;;;12.60;6.10;;;23.60;1.00;;;;;;9940130;29;20316;-81
2023/08/14 19:56:28;;;;;;;9.07;6.00;;;23.60;1.00;;;;;;9967433;29;20225;-83
2023/08/14 20:01:49;;;;;;;7.35;5.82;;;23.50;1.00;;;;;;9977860;29;20224;-82
2023/08/14 20:07:11;;;;;;;13.90;6.60;;;23.40;1.00;;;;;;9959128;29;20211;-82
2023/08/14 20:12:32;;;;;;;8.88;6.53;;;23.30;1.00;;;;;;9944950;29;20220;-82
2023/08/14 20:17:53;;;;;;;11.63;6.63;;;23.20;1.00;;;;;;9920331;29;20207;-82
2023/08/14 20:23:18;;;;;;;12.38;8.02;;;23.10;1.00;;;;;;9958076;29;20242;-82
2023/08/14 20:28:39;;;;;;;22.67;12.85;;;23.10;1.00;;;;;;9979006;29;20212;-81
2023/08/14 20:34:01;;;;;;;30.23;15.82;;;23.10;21.10;;;;;;9986252;29;20503;-82
2023/08/14 20:39:22;;;;;;;29.15;16.92;;;23.00;1.00;;;;;;10009199;29;20248;-82
2023/08/14 20:44:44;;;;;;;34.05;14.32;;;22.90;13.70;;;;;;9961802;29;20227;-81
2023/08/14 20:50:06;;;;;;;17.70;10.43;;;22.90;99.90;;;;;;10007895;29;20235;-81
2023/08/14 20:55:27;;;;;;;14.88;10.57;;;22.80;99.90;;;;;;9988329;29;20299;-82
2023/08/14 21:00:49;;;;;;;19.17;11.07;;;;;;;;;;9978476;29;20227;-81
2023/08/14 21:06:11;;;;;;;15.50;9.95;;;;;;;;;;9954594;29;20212;-82
2023/08/14 21:11:31;;;;;;;14.55;8.98;;;22.70;1.00;;;;;;9953668;29;20583;-81
2023/08/14 21:16:53;;;;;;;12.65;7.93;;;22.40;1.00;;;;;;9954767;29;20218;-81
2023/08/14 21:22:14;;;;;;;11.00;7.25;;;22.60;1.00;;;;;;9956368;29;20327;-81
2023/08/14 21:27:35;;;;;;;9.90;7.85;;;22.60;1.00;;;;;;9968577;29;20215;-83
2023/08/14 21:32:56;;;;;;;11.82;7.22;;;22.40;99.90;;;;;;9970561;29;20287;-82
2023/08/14 21:38:25;;;;;;;10.80;7.30;;;22.30;99.90;;;;;;9969501;29;20272;-83
2023/08/14 21:43:46;;;;;;;9.75;7.15;;;22.50;1.00;;;;;;9955361;29;20252;-81
2023/08/14 21:49:07;;;;;;;15.07;7.70;;;22.30;1.00;;;;;;9981461;29;20216;-81
2023/08/14 21:54:28;;;;;;;10.05;6.40;;;22.00;99.90;;;;;;9957626;29;20506;-81
2023/08/14 21:59:50;;;;;;;6.57;5.35;;;21.90;99.90;;;;;;9975082;29;20198;-80
2023/08/14 22:05:11;;;;;;;11.40;6.15;;;21.90;1.00;;;;;;9984034;29;20221;-81
2023/08/14 22:10:33;;;;;;;8.93;5.78;;;21.80;1.00;;;;;;9967352;29;20213;-81
2023/08/14 22:15:54;;;;;;;9.32;6.20;;;21.90;1.00;;;;;;9957317;29;20204;-80
2023/08/14 22:21:15;;;;;;;8.25;6.40;;;21.80;1.00;;;;;;9952676;29;20234;-81
2023/08/14 22:26:36;;;;;;;11.90;7.35;;;21.80;1.00;;;;;;9955835;29;20502;-80
2023/08/14 22:31:58;;;;;;;15.02;7.13;;;21.80;1.00;;;;;;9941522;29;20212;-81
2023/08/14 22:37:19;;;;;;;11.57;6.93;;;21.70;7.20;;;;;;9980835;29;20296;-82
2023/08/14 22:42:41;;;;;;;11.00;6.55;;;21.70;45.60;;;;;;9967199;29;20570;-81
2023/08/14 22:48:02;;;;;;;9.77;6.18;;;21.60;99.90;;;;;;9953479;29;20380;-83
2023/08/14 22:53:23;;;;;;;10.30;7.00;;;21.50;99.90;;;;;;9978284;29;20208;-81
2023/08/14 22:58:51;;;;;;;12.90;8.20;;;21.50;99.90;;;;;;9965883;29;20204;-81
2023/08/14 23:04:12;;;;;;;15.07;7.93;;;21.40;99.90;;;;;;9989203;29;20530;-81
2023/08/14 23:09:34;;;;;;;10.20;7.45;;;21.40;1.00;;;;;;9952355;29;20216;-81
2023/08/14 23:14:56;;;;;;;13.18;6.75;;;21.40;1.00;;;;;;9952827;29;20233;-81
2023/08/14 23:20:17;;;;;;;13.50;8.05;;;21.30;1.00;;;;;;9951174;29;20200;-82
2023/08/14 23:25:38;;;;;;;14.57;8.10;;;21.30;99.90;;;;;;9965051;29;20253;-81
2023/08/14 23:31:02;;;;;;;10.50;6.50;;;21.20;1.00;;;;;;9952309;29;20234;-81
2023/08/14 23:36:23;;;;;;;8.52;6.57;;;21.10;1.00;;;;;;9951001;29;20220;-83
2023/08/14 23:41:44;;;;;;;8.95;6.00;;;21.10;99.90;;;;;;9964262;29;20272;-81
2023/08/14 23:47:05;;;;;;;15.25;6.88;;;21.10;99.90;;;;;;9951883;29;20232;-81
2023/08/14 23:52:27;;;;;;;13.18;7.38;;;21.10;99.90;;;;;;9948874;29;20235;-81
2023/08/14 23:57:48;;;;;;;13.20;7.45;;;21.00;99.90;;;;;;9939179;29;20239;-81
